createdAt,value
2022-10-21T00:01:13.342Z,5.79
2022-10-21T00:03:42.354Z,6.03
2022-10-21T00:06:11.427Z,6.62
2022-10-21T00:08:40.437Z,6.33
2022-10-21T00:11:11.357Z,5.96
2022-10-21T00:13:40.823Z,6.66
2022-10-21T00:16:11.814Z,6.77
2022-10-21T00:18:41.745Z,6.12
2022-10-21T00:21:12.140Z,5.62
2022-10-21T00:23:40.852Z,5.30
2022-10-21T00:26:11.177Z,5.72
2022-10-21T00:28:39.779Z,6.63
2022-10-21T00:31:09.165Z,6.57
2022-10-21T00:33:38.304Z,6.63
2022-10-21T00:36:07.633Z,6.29
2022-10-21T00:38:37.551Z,6.59
2022-10-21T00:41:06.085Z,6.50
2022-10-21T00:44:01.071Z,6.48
2022-10-21T00:46:35.937Z,5.67
2022-10-21T00:49:08.319Z,6.27
2022-10-21T00:51:36.956Z,6.40
2022-10-21T00:54:06.537Z,5.71
2022-10-21T00:56:36.237Z,4.75
2022-10-21T00:59:08.296Z,5.94
2022-10-21T01:01:36.819Z,6.28
2022-10-21T01:04:06.299Z,6.29
2022-10-21T01:06:35.869Z,5.72
2022-10-21T01:09:04.604Z,6.54
2022-10-21T01:11:43.509Z,5.81
2022-10-21T01:14:42.464Z,6.24
2022-10-21T01:17:26.708Z,6.46
2022-10-21T01:20:39.102Z,6.51
2022-10-21T01:23:42.166Z,6.58
2022-10-21T01:26:39.071Z,6.59
2022-10-21T01:29:22.671Z,5.83
2022-10-21T01:31:57.755Z,6.38
2022-10-21T01:34:29.810Z,6.58
2022-10-21T01:36:59.939Z,5.76
2022-10-21T01:39:31.765Z,7.09
2022-10-21T01:42:05.055Z,5.77
2022-10-21T01:44:37.822Z,6.60
2022-10-21T01:47:10.857Z,7.06
2022-10-21T01:49:42.111Z,7.41
2022-10-21T01:52:10.760Z,6.17
2022-10-21T01:54:41.383Z,7.00
2022-10-21T01:57:10.498Z,7.58
2022-10-21T01:59:40.226Z,7.61
2022-10-21T02:02:11.934Z,7.62
2022-10-21T02:04:42.960Z,7.58
2022-10-21T02:07:11.923Z,6.57
2022-10-21T02:09:40.868Z,6.93
2022-10-21T02:12:09.967Z,6.77
2022-10-21T02:14:42.618Z,6.19
2022-10-21T02:17:15.882Z,6.22
2022-10-21T02:19:44.708Z,7.26
2022-10-21T02:22:15.333Z,7.07
2022-10-21T02:24:48.645Z,7.13
2022-10-21T02:27:17.204Z,7.31
2022-10-21T02:29:46.991Z,7.38
2022-10-21T02:32:27.596Z,6.01
2022-10-21T02:35:09.313Z,7.37
2022-10-21T02:37:42.423Z,6.94
2022-10-21T02:40:13.826Z,7.19
2022-10-21T02:42:46.057Z,7.34
2022-10-21T02:45:14.623Z,6.46
2022-10-21T02:47:45.045Z,6.48
2022-10-21T02:50:13.389Z,6.31
2022-10-21T02:52:42.011Z,6.82
2022-10-21T02:55:10.958Z,6.84
2022-10-21T02:57:39.841Z,6.82
2022-10-21T03:00:09.649Z,7.03
2022-10-21T03:02:38.140Z,7.02
2022-10-21T03:05:09.376Z,6.75
2022-10-21T03:07:38.341Z,6.94
2022-10-21T03:10:07.904Z,6.20
2022-10-21T03:12:36.277Z,6.78
2022-10-21T03:15:06.340Z,6.67
2022-10-21T03:17:34.908Z,6.62
2022-10-21T03:20:03.116Z,6.14
2022-10-21T03:22:32.736Z,6.07
2022-10-21T03:25:01.322Z,6.54
2022-10-21T03:29:58.255Z,6.47
2022-10-21T03:32:26.902Z,6.40
2022-10-21T03:34:55.205Z,5.13
2022-10-21T03:37:23.482Z,6.24
2022-10-21T03:39:53.510Z,6.50
2022-10-21T03:42:21.875Z,5.60
2022-10-21T03:44:50.331Z,6.49
2022-10-21T03:47:18.724Z,6.07
2022-10-21T03:49:47.100Z,6.51
2022-10-21T03:52:15.721Z,6.30
2022-10-21T03:54:44.176Z,6.25
2022-10-21T03:57:15.295Z,6.50
2022-10-21T03:59:43.924Z,5.54
2022-10-21T04:02:13.884Z,6.42
2022-10-21T04:04:42.646Z,6.35
2022-10-21T04:07:11.527Z,6.43
2022-10-21T04:09:39.897Z,6.44
2022-10-21T04:12:08.310Z,6.53
2022-10-21T04:14:38.365Z,6.45
2022-10-21T04:17:07.821Z,6.49
2022-10-21T04:19:36.623Z,6.32
2022-10-21T04:22:05.413Z,5.72
2022-10-21T04:24:33.764Z,5.71
2022-10-21T04:27:02.134Z,6.16
2022-10-21T04:29:30.586Z,6.35
2022-10-21T04:32:00.747Z,6.48
2022-10-21T04:34:29.226Z,6.44
2022-10-21T04:37:01.073Z,6.20
2022-10-21T04:39:32.755Z,5.11
2022-10-21T04:42:01.110Z,6.05
2022-10-21T04:44:29.534Z,6.56
2022-10-21T04:46:59.371Z,6.41
2022-10-21T04:49:27.865Z,5.25
2022-10-21T04:51:56.433Z,6.45
2022-10-21T04:54:24.910Z,6.39
2022-10-21T04:56:53.360Z,5.95
2022-10-21T04:59:23.042Z,6.30
2022-10-21T05:01:51.443Z,5.74
2022-10-21T05:04:21.323Z,6.29
2022-10-21T05:06:49.726Z,6.36
2022-10-21T05:09:18.233Z,5.91
2022-10-21T05:11:46.828Z,6.10
2022-10-21T05:14:18.759Z,5.67
2022-10-21T05:16:50.175Z,5.62
2022-10-21T05:19:18.621Z,5.98
2022-10-21T05:21:48.335Z,6.65
2022-10-21T05:24:16.776Z,6.33
2022-10-21T05:26:45.057Z,6.77
2022-10-21T05:29:13.469Z,6.25
2022-10-21T05:31:42.409Z,6.88
2022-10-21T05:34:10.805Z,6.83
2022-10-21T05:36:39.192Z,6.55
2022-10-21T05:39:11.494Z,6.96
2022-10-21T05:41:41.102Z,6.53
2022-10-21T05:44:11.638Z,6.76
2022-10-21T05:46:40.144Z,7.10
2022-10-21T05:49:08.770Z,6.76
2022-10-21T05:51:41.903Z,6.84
2022-10-21T05:54:12.433Z,6.95
2022-10-21T05:56:42.137Z,7.21
2022-10-21T05:59:11.050Z,6.87
2022-10-21T06:01:41.258Z,7.41
2022-10-21T06:04:10.284Z,7.14
2022-10-21T06:06:39.805Z,7.67
2022-10-21T06:09:08.331Z,7.74
2022-10-21T06:11:38.469Z,7.74
2022-10-21T06:14:07.127Z,6.99
2022-10-21T06:16:35.611Z,7.90
2022-10-21T06:19:04.750Z,7.96
2022-10-21T06:21:33.303Z,7.25
2022-10-21T06:24:02.268Z,7.68
2022-10-21T06:26:34.658Z,7.36
2022-10-21T06:29:07.534Z,7.92
2022-10-21T06:31:36.650Z,7.95
2022-10-21T06:34:05.491Z,8.18
2022-10-21T06:36:34.341Z,8.27
2022-10-21T06:39:03.111Z,7.67
2022-10-21T06:41:31.696Z,8.23
2022-10-21T06:44:00.565Z,8.19
2022-10-21T06:46:30.743Z,8.00
2022-10-21T06:48:59.861Z,7.99
2022-10-21T06:51:29.575Z,8.30
2022-10-21T06:54:00.253Z,7.77
2022-10-21T06:56:30.205Z,8.37
2022-10-21T06:58:59.557Z,8.66
2022-10-21T07:01:48.478Z,8.79
2022-10-21T07:04:22.530Z,9.00
2022-10-21T07:06:52.705Z,8.74
2022-10-21T07:09:22.606Z,8.54
2022-10-21T07:11:51.927Z,9.19
2022-10-21T07:14:21.195Z,9.63
2022-10-21T07:16:51.713Z,9.54
2022-10-21T07:19:20.165Z,9.76
2022-10-21T07:21:48.531Z,8.82
2022-10-21T07:24:22.290Z,10.13
2022-10-21T07:26:52.076Z,10.14
2022-10-21T07:29:20.757Z,9.13
2022-10-21T07:31:50.922Z,9.83
2022-10-21T07:34:19.631Z,9.74
2022-10-21T07:36:52.828Z,9.70
2022-10-21T07:39:24.414Z,9.16
2022-10-21T07:41:54.856Z,8.95
2022-10-21T07:44:25.094Z,9.04
2022-10-21T07:46:56.439Z,9.35
2022-10-21T07:49:25.523Z,8.73
2022-10-21T07:51:54.690Z,9.40
2022-10-21T07:54:23.199Z,9.31
2022-10-21T07:56:53.546Z,9.65
2022-10-21T07:59:23.339Z,9.78
2022-10-21T08:01:53.721Z,10.04
2022-10-21T08:04:30.757Z,10.28
2022-10-21T08:07:01.084Z,10.52
2022-10-21T08:09:30.225Z,10.34
2022-10-21T08:11:59.146Z,10.57
2022-10-21T08:14:27.694Z,10.51
2022-10-21T08:16:56.591Z,10.57
2022-10-21T08:19:29.927Z,10.49
2022-10-21T08:22:01.088Z,10.67
2022-10-21T08:24:31.366Z,10.64
2022-10-21T08:26:59.952Z,10.47
2022-10-21T08:29:29.130Z,10.59
2022-10-21T08:31:58.353Z,10.39
2022-10-21T08:34:28.768Z,10.56
2022-10-21T08:36:58.924Z,10.57
2022-10-21T08:39:27.728Z,10.68
2022-10-21T08:42:07.294Z,10.66
2022-10-21T08:44:45.523Z,10.98
2022-10-21T08:47:32.716Z,12.07
2022-10-21T08:50:05.470Z,12.08
2022-10-21T08:52:42.645Z,13.26
2022-10-21T08:55:17.311Z,13.50
2022-10-21T08:57:45.977Z,13.69
2022-10-21T09:00:20.033Z,13.79
2022-10-21T09:03:09.130Z,13.56
2022-10-21T09:05:58.265Z,14.60
2022-10-21T09:08:34.797Z,14.74
2022-10-21T09:11:09.798Z,15.31
2022-10-21T09:13:54.526Z,14.36
2022-10-21T09:16:27.240Z,13.82
2022-10-21T09:19:03.479Z,15.01
2022-10-21T09:21:43.085Z,15.98
2022-10-21T09:24:16.204Z,14.96
2022-10-21T09:26:46.028Z,14.12
2022-10-21T09:29:23.089Z,15.65
2022-10-21T09:31:57.244Z,15.23
2022-10-21T09:34:39.054Z,14.84
2022-10-21T09:37:16.478Z,14.33
2022-10-21T09:39:48.191Z,15.29
2022-10-21T09:42:29.532Z,15.81
2022-10-21T09:45:08.760Z,16.08
2022-10-21T09:47:41.206Z,16.88
2022-10-21T09:50:16.662Z,17.23
2022-10-21T09:52:50.899Z,18.37
2022-10-21T09:55:19.578Z,18.49
2022-10-21T09:57:53.137Z,18.22
2022-10-21T10:00:24.324Z,18.39
2022-10-21T10:02:53.841Z,19.48
2022-10-21T10:05:38.726Z,19.44
2022-10-21T10:08:26.274Z,20.32
2022-10-21T10:11:17.773Z,20.43
2022-10-21T10:14:00.765Z,21.41
2022-10-21T10:16:40.149Z,20.64
2022-10-21T10:19:20.085Z,19.27
2022-10-21T10:21:51.421Z,21.05
2022-10-21T10:24:23.144Z,19.79
2022-10-21T10:26:55.663Z,18.84
2022-10-21T10:29:27.758Z,18.04
2022-10-21T10:31:57.870Z,17.36
2022-10-21T10:34:30.823Z,16.81
2022-10-21T10:37:05.956Z,16.28
2022-10-21T10:39:38.168Z,16.30
2022-10-21T10:42:06.481Z,17.04
2022-10-21T10:44:38.211Z,17.44
2022-10-21T10:47:08.157Z,18.22
2022-10-21T10:49:44.343Z,18.58
2022-10-21T10:52:22.523Z,19.18
2022-10-21T10:55:16.398Z,18.94
2022-10-21T10:58:06.214Z,17.74
2022-10-21T11:00:44.679Z,17.07
2022-10-21T11:03:28.444Z,15.73
2022-10-21T11:06:14.827Z,15.60
2022-10-21T11:08:51.612Z,15.28
2022-10-21T11:11:27.498Z,15.26
2022-10-21T11:13:56.231Z,14.84
2022-10-21T11:16:50.454Z,13.23
2022-10-21T11:19:34.349Z,13.65
2022-10-21T11:22:13.437Z,14.16
2022-10-21T11:24:59.826Z,13.47
2022-10-21T11:27:48.813Z,13.72
2022-10-21T11:30:20.049Z,14.03
2022-10-21T11:33:00.763Z,13.96
2022-10-21T11:35:40.197Z,13.38
2022-10-21T11:38:20.555Z,13.80
2022-10-21T11:40:50.813Z,13.78
2022-10-21T11:43:30.655Z,13.54
2022-10-21T11:46:03.148Z,13.78
2022-10-21T11:48:43.203Z,13.05
2022-10-21T11:51:19.227Z,13.29
2022-10-21T11:54:04.789Z,13.31
2022-10-21T11:56:39.876Z,13.23
2022-10-21T12:02:00.368Z,13.66
2022-10-21T12:04:38.365Z,13.36
2022-10-21T12:07:16.024Z,13.66
2022-10-21T12:09:49.485Z,13.65
2022-10-21T12:12:19.603Z,13.81
2022-10-21T12:14:51.911Z,13.64
2022-10-21T12:17:22.895Z,13.86
2022-10-21T12:19:56.197Z,13.93
2022-10-21T12:22:25.104Z,13.69
2022-10-21T12:24:59.034Z,14.26
2022-10-21T12:27:31.386Z,14.19
2022-10-21T12:30:06.853Z,14.19
2022-10-21T12:32:42.992Z,13.60
2022-10-21T12:35:15.255Z,14.17
2022-10-21T12:38:06.157Z,14.18
2022-10-21T12:40:40.067Z,14.16
2022-10-21T12:43:19.930Z,14.09
2022-10-21T12:46:03.169Z,14.25
2022-10-21T12:48:37.367Z,14.25
2022-10-21T12:51:12.233Z,13.82
2022-10-21T12:53:45.019Z,13.56
2022-10-21T12:56:13.351Z,13.77
2022-10-21T12:58:43.966Z,13.91
2022-10-21T13:01:40.317Z,13.93
2022-10-21T13:04:49.073Z,13.92
2022-10-21T13:07:37.569Z,13.81
2022-10-21T13:10:27.509Z,13.94
2022-10-21T13:13:34.132Z,13.85
2022-10-21T13:16:19.735Z,13.82
2022-10-21T13:19:00.351Z,13.36
2022-10-21T13:21:40.729Z,13.54
2022-10-21T13:24:32.919Z,13.61
2022-10-21T13:27:03.280Z,13.63
2022-10-21T13:29:43.175Z,13.40
2022-10-21T13:32:32.695Z,13.50
2022-10-21T13:35:33.734Z,13.39
2022-10-21T13:38:18.400Z,13.36
2022-10-21T13:40:50.314Z,13.07
2022-10-21T13:43:29.053Z,13.25
2022-10-21T13:46:06.416Z,12.29
2022-10-21T13:48:39.860Z,12.64
2022-10-21T13:51:20.953Z,12.83
2022-10-21T13:53:50.783Z,12.80
2022-10-21T13:56:23.370Z,12.68
2022-10-21T13:58:52.451Z,12.84
2022-10-21T14:01:26.151Z,12.33
2022-10-21T14:03:56.404Z,12.76
2022-10-21T14:06:31.903Z,12.75
2022-10-21T14:09:04.580Z,12.59
2022-10-21T14:11:37.720Z,12.51
2022-10-21T14:14:09.821Z,12.12
2022-10-21T14:16:41.219Z,12.42
2022-10-21T14:19:11.409Z,12.31
2022-10-21T14:21:45.948Z,12.45
2022-10-21T14:24:28.741Z,12.44
2022-10-21T14:26:57.481Z,12.48
2022-10-21T14:29:33.152Z,12.50
2022-10-21T14:32:02.481Z,12.49
2022-10-21T14:34:33.417Z,12.48
2022-10-21T14:37:09.387Z,12.56
2022-10-21T14:39:41.019Z,12.59
2022-10-21T14:42:16.535Z,12.54
2022-10-21T14:44:46.216Z,12.65
2022-10-21T14:47:19.485Z,12.58
2022-10-21T14:49:49.500Z,12.61
2022-10-21T14:52:23.063Z,12.41
2022-10-21T14:54:56.170Z,11.99
2022-10-21T14:57:33.130Z,12.49
2022-10-21T15:00:01.837Z,12.49
2022-10-21T15:02:33.504Z,12.43
2022-10-21T15:05:02.828Z,12.43
2022-10-21T15:07:36.465Z,12.42
2022-10-21T15:10:19.019Z,11.92
2022-10-21T15:12:50.644Z,12.22
2022-10-21T15:15:52.608Z,12.31
2022-10-21T15:18:26.106Z,12.14
2022-10-21T15:20:58.978Z,12.07
2022-10-21T15:23:32.695Z,12.05
2022-10-21T15:26:06.587Z,11.56
2022-10-21T15:28:36.958Z,11.84
2022-10-21T15:31:12.805Z,12.02
2022-10-21T15:33:42.145Z,11.94
2022-10-21T15:36:15.715Z,11.96
2022-10-21T15:38:47.697Z,11.52
2022-10-21T15:41:18.862Z,11.90
2022-10-21T15:43:56.316Z,11.29
2022-10-21T15:46:27.084Z,11.79
2022-10-21T15:48:57.359Z,11.09
2022-10-21T15:51:27.273Z,11.58
2022-10-21T15:54:07.127Z,11.59
2022-10-21T15:56:37.146Z,11.28
2022-10-21T15:59:06.889Z,11.49
2022-10-21T16:01:35.979Z,11.42
2022-10-21T16:04:07.053Z,11.33
2022-10-21T16:06:40.389Z,11.31
2022-10-21T16:09:16.748Z,11.16
2022-10-21T16:11:58.971Z,10.88
2022-10-21T16:14:30.032Z,11.30
2022-10-21T16:17:03.561Z,11.22
2022-10-21T16:19:35.075Z,11.29
2022-10-21T16:22:05.222Z,11.29
2022-10-21T16:24:35.107Z,11.21
2022-10-21T16:27:03.351Z,11.04
2022-10-21T16:29:31.584Z,11.26
2022-10-21T16:32:00.135Z,11.18
2022-10-21T16:34:28.519Z,10.73
2022-10-21T16:36:56.624Z,11.32
2022-10-21T16:39:25.539Z,11.26
2022-10-21T16:41:55.205Z,11.20
2022-10-21T16:44:23.735Z,11.05
2022-10-21T16:46:53.207Z,11.11
2022-10-21T16:49:24.028Z,11.13
2022-10-21T16:51:53.213Z,10.58
2022-10-21T16:54:22.655Z,11.06
2022-10-21T16:56:53.481Z,10.38
2022-10-21T16:59:27.200Z,10.95
2022-10-21T17:01:55.750Z,10.87
2022-10-21T17:04:24.627Z,10.86
2022-10-21T17:06:56.215Z,10.44
2022-10-21T17:09:28.389Z,10.63
2022-10-21T17:11:57.251Z,10.83
2022-10-21T17:14:27.074Z,10.81
2022-10-21T17:16:59.505Z,10.75
2022-10-21T17:19:29.168Z,10.74
2022-10-21T17:22:01.822Z,10.63
2022-10-21T17:24:32.718Z,10.75
2022-10-21T17:27:04.904Z,10.75
2022-10-21T17:29:42.108Z,10.71
2022-10-21T17:32:12.542Z,10.64
2022-10-21T17:34:43.581Z,10.62
2022-10-21T17:37:12.927Z,10.54
2022-10-21T17:39:42.053Z,10.51
2022-10-21T17:42:11.372Z,10.05
2022-10-21T17:44:40.931Z,10.33
2022-10-21T17:47:09.569Z,10.26
2022-10-21T17:49:38.085Z,10.43
2022-10-21T17:52:09.286Z,10.34
2022-10-21T17:54:38.068Z,10.38
2022-10-21T17:57:06.946Z,10.20
2022-10-21T17:59:35.609Z,9.18
2022-10-21T18:02:09.083Z,10.10
2022-10-21T18:04:38.542Z,10.06
2022-10-21T18:07:09.403Z,9.97
2022-10-21T18:09:40.660Z,10.03
2022-10-21T18:12:11.267Z,10.10
2022-10-21T18:14:39.580Z,10.11
2022-10-21T18:17:09.699Z,10.11
2022-10-21T18:19:39.106Z,10.06
2022-10-21T18:22:07.363Z,9.89
2022-10-21T18:24:37.996Z,10.02
2022-10-21T18:27:08.402Z,10.09
2022-10-21T18:29:38.439Z,9.75
2022-10-21T18:32:13.800Z,9.68
2022-10-21T18:34:43.660Z,9.88
2022-10-21T18:37:15.309Z,9.84
2022-10-21T18:39:43.942Z,9.91
2022-10-21T18:42:12.328Z,9.93
2022-10-21T18:44:40.609Z,9.63
2022-10-21T18:47:10.249Z,9.88
2022-10-21T18:49:38.472Z,9.62
2022-10-21T18:52:06.728Z,9.28
2022-10-21T18:54:34.841Z,9.75
2022-10-21T18:57:03.732Z,9.73
2022-10-21T18:59:32.207Z,9.71
2022-10-21T19:02:00.415Z,9.34
2022-10-21T19:04:29.904Z,9.35
2022-10-21T19:06:58.554Z,9.28
2022-10-21T19:09:27.508Z,9.59
2022-10-21T19:11:55.676Z,9.55
2022-10-21T19:14:24.007Z,9.52
2022-10-21T19:16:52.253Z,9.08
2022-10-21T19:19:20.508Z,9.03
2022-10-21T19:21:49.995Z,9.42
2022-10-21T19:24:18.261Z,9.17
2022-10-21T19:26:46.486Z,9.24
2022-10-21T19:29:17.252Z,9.31
2022-10-21T19:34:15.898Z,9.23
2022-10-21T19:36:44.123Z,9.22
2022-10-21T19:39:14.061Z,9.20
2022-10-21T19:41:42.370Z,8.97
2022-10-21T19:44:11.013Z,9.12
2022-10-21T19:46:39.390Z,9.27
2022-10-21T19:49:08.963Z,9.26
2022-10-21T19:51:38.461Z,9.34
2022-10-21T19:54:08.234Z,9.36
2022-10-21T19:56:37.711Z,9.38
2022-10-21T19:59:06.580Z,9.37
2022-10-21T20:01:35.516Z,9.30
2022-10-21T20:04:04.599Z,9.17
2022-10-21T20:06:34.207Z,9.18
2022-10-21T20:09:04.165Z,9.34
2022-10-21T20:11:32.686Z,9.18
2022-10-21T20:14:02.910Z,9.25
2022-10-21T20:16:33.030Z,9.35
2022-10-21T20:19:02.662Z,9.32
2022-10-21T20:21:32.594Z,9.31
2022-10-21T20:24:04.634Z,9.27
2022-10-21T20:26:33.072Z,9.38
2022-10-21T20:29:03.106Z,9.32
2022-10-21T20:31:32.453Z,9.38
2022-10-21T20:34:00.692Z,9.18
2022-10-21T20:36:30.310Z,9.34
2022-10-21T20:38:59.609Z,9.42
2022-10-21T20:41:31.079Z,9.45
2022-10-21T20:43:59.175Z,9.03
2022-10-21T20:46:29.499Z,9.49
2022-10-21T20:48:57.631Z,9.52
2022-10-21T20:51:29.218Z,9.45
2022-10-21T20:53:59.313Z,9.52
2022-10-21T20:56:31.306Z,9.23
2022-10-21T20:58:59.956Z,9.55
2022-10-21T21:01:32.176Z,9.55
2022-10-21T21:04:02.237Z,9.49
2022-10-21T21:06:30.335Z,9.41
2022-10-21T21:09:37.714Z,9.55
2022-10-21T21:11:48.504Z,9.56
2022-10-21T21:14:17.372Z,9.32
2022-10-21T21:16:46.903Z,9.56
2022-10-21T21:19:15.129Z,8.93
2022-10-21T21:21:43.330Z,9.26
2022-10-21T21:24:11.497Z,8.72
2022-10-21T21:26:40.710Z,9.21
2022-10-21T21:29:09.728Z,9.38
2022-10-21T21:31:39.290Z,8.80
2022-10-21T21:34:09.345Z,9.40
2022-10-21T21:36:38.042Z,8.67
2022-10-21T21:39:07.312Z,9.35
2022-10-21T21:41:36.516Z,9.33
2022-10-21T21:44:07.110Z,9.20
2022-10-21T21:46:35.532Z,9.32
2022-10-21T21:49:06.106Z,9.35
2022-10-21T21:51:39.018Z,9.35
2022-10-21T21:54:08.610Z,9.35
2022-10-21T21:56:36.939Z,9.39
2022-10-21T21:59:05.474Z,9.34
2022-10-21T22:01:34.130Z,8.75
2022-10-21T22:04:02.574Z,9.42
2022-10-21T22:06:32.490Z,9.40
2022-10-21T22:09:02.646Z,9.29
2022-10-21T22:11:32.681Z,9.39
2022-10-21T22:14:01.286Z,9.40
2022-10-21T22:16:30.582Z,9.18
2022-10-21T22:19:00.282Z,9.40
2022-10-21T22:21:29.285Z,9.41
2022-10-21T22:23:57.413Z,9.41
2022-10-21T22:26:27.723Z,9.39
2022-10-21T22:28:56.452Z,9.34
2022-10-21T22:31:29.220Z,9.39
2022-10-21T22:34:00.040Z,9.21
2022-10-21T22:36:28.214Z,9.41
2022-10-21T22:38:56.357Z,9.26
2022-10-21T22:41:24.576Z,9.04
2022-10-21T22:43:54.085Z,9.44
2022-10-21T22:46:33.247Z,9.51
2022-10-21T22:49:02.684Z,9.52
2022-10-21T22:51:30.808Z,9.25
2022-10-21T22:53:58.901Z,9.41
2022-10-21T22:56:27.838Z,9.57
2022-10-21T22:58:57.974Z,9.41
2022-10-21T23:01:30.430Z,9.44
2022-10-21T23:04:02.642Z,9.18
2022-10-21T23:06:31.069Z,9.48
2022-10-21T23:08:59.710Z,9.56
2022-10-21T23:11:28.130Z,9.42
2022-10-21T23:14:03.487Z,9.48
2022-10-21T23:16:36.547Z,9.51
2022-10-21T23:19:05.177Z,9.42
2022-10-21T23:21:33.408Z,9.47
2022-10-21T23:24:01.505Z,9.38
2022-10-21T23:26:29.623Z,9.38
2022-10-21T23:28:59.088Z,9.52
2022-10-21T23:31:27.359Z,9.61
2022-10-21T23:33:55.370Z,9.62
2022-10-21T23:36:23.532Z,9.63
2022-10-21T23:38:55.457Z,9.62
2022-10-21T23:41:23.862Z,9.62
2022-10-21T23:43:52.118Z,9.49
2022-10-21T23:46:21.950Z,9.33
2022-10-21T23:48:50.226Z,9.41
2022-10-21T23:51:19.766Z,9.59
2022-10-21T23:53:47.952Z,9.74
2022-10-21T23:56:16.171Z,9.76
2022-10-21T23:58:44.346Z,9.25
